Time;durP1;ratioP1;P1;durP2;ratioP2;P2;SDS_P1;SDS_P2;PMS_P1;PMS_P2;Temp;Humidity;BMP_temperature;BMP_pressure;BME280_temperature;BME280_humidity;BME280_pressure;Samples;Min_cycle;Max_cycle;Signal;HPM_P1;HPM_P2
2022/10/21 00:01:30;;;;;;;12.87;8.27;;;13.60;99.90;;;;;;10092558;29;20677;-81
2022/10/21 00:06:32;;;;;;;12.70;9.50;;;13.60;99.90;;;;;;10075863;29;20229;-81
2022/10/21 00:11:35;;;;;;;11.67;8.30;;;14.40;99.90;;;;;;10076118;29;20241;-81
2022/10/21 00:16:37;;;;;;;12.27;8.30;;;13.90;99.90;;;;;;10073410;29;20253;-81
2022/10/21 00:21:41;;;;;;;11.23;8.43;;;14.60;99.90;;;;;;10059488;29;20272;-81
2022/10/21 00:26:43;;;;;;;16.37;10.50;;;14.20;99.90;;;;;;10077196;29;20241;-81
2022/10/21 00:31:46;;;;;;;14.57;8.77;;;14.10;99.90;;;;;;10091075;29;20583;-81
2022/10/21 00:36:48;;;;;;;14.23;9.80;;;13.70;99.90;;;;;;10085481;29;20243;-81
2022/10/21 00:41:51;;;;;;;17.47;11.17;;;13.80;99.90;;;;;;10085205;29;20256;-80
2022/10/21 00:46:57;;;;;;;11.73;9.43;;;12.90;99.90;;;;;;10059349;29;20275;-81
2022/10/21 00:52:02;;;;;;;11.80;8.87;;;13.30;99.90;;;;;;10072345;29;20241;-81
2022/10/21 00:57:05;;;;;;;10.20;8.77;;;13.60;99.90;;;;;;10072143;29;21056;-81
2022/10/21 01:02:07;;;;;;;16.23;10.60;;;14.30;99.90;;;;;;10069395;29;20330;-81
2022/10/21 01:07:11;;;;;;;15.67;9.97;;;12.80;99.90;;;;;;10067070;29;20296;-81
2022/10/21 01:12:39;;;;;;;11.33;8.83;;;13.10;99.90;;;;;;10068977;29;20312;-81
2022/10/21 01:18:03;;;;;;;12.60;9.47;;;12.90;99.90;;;;;;10054164;29;20295;-81
2022/10/21 01:23:34;;;;;;;12.43;9.00;;;13.60;99.90;;;;;;10065110;29;20828;-81
2022/10/21 01:29:05;;;;;;;13.77;9.50;;;14.10;99.90;;;;;;10051096;29;20400;-81
2022/10/21 01:34:10;;;;;;;13.80;9.10;;;13.10;99.90;;;;;;10052119;29;20326;-82
2022/10/21 01:39:26;;;;;;;14.10;10.60;;;;;;;;;;10049955;29;20425;-81
2022/10/21 01:44:52;;;;;;;10.93;8.87;;;12.50;99.90;;;;;;10058412;29;20299;-82
2022/10/21 01:50:01;;;;;;;13.43;9.03;;;13.10;99.90;;;;;;10066282;29;20237;-82
2022/10/21 01:55:08;;;;;;;14.10;9.23;;;13.60;99.90;;;;;;10052522;29;20281;-81
2022/10/21 02:00:11;;;;;;;9.27;8.07;;;13.30;99.90;;;;;;10051996;29;20709;-81
2022/10/21 02:05:29;;;;;;;12.37;9.83;;;13.20;99.90;;;;;;10066537;29;20293;-81
2022/10/21 02:10:36;;;;;;;13.00;9.73;;;13.40;99.90;;;;;;10052348;29;20300;-81
2022/10/21 02:15:41;;;;;;;14.57;9.53;;;13.70;99.90;;;;;;10039639;29;20303;-81
2022/10/21 02:20:48;;;;;;;15.57;10.10;;;13.80;99.90;;;;;;10075217;29;20315;-82
2022/10/21 02:25:51;;;;;;;15.67;9.67;;;14.40;99.90;;;;;;10045173;29;20297;-81
2022/10/21 02:31:20;;;;;;;12.50;7.97;;;13.60;99.90;;;;;;10073870;29;20319;-81
2022/10/21 02:36:52;;;;;;;11.10;8.17;;;13.90;99.90;;;;;;10076341;29;20354;-81
2022/10/21 02:41:56;;;;;;;14.67;10.40;;;12.80;99.90;;;;;;10069957;29;20336;-81
2022/10/21 02:46:59;;;;;;;16.53;10.93;;;13.20;99.90;;;;;;10041096;29;20385;-81
2022/10/21 02:52:01;;;;;;;14.43;10.73;;;12.80;99.90;;;;;;10068484;29;20337;-81
2022/10/21 02:57:04;;;;;;;14.53;10.60;;;12.60;99.90;;;;;;10074040;29;20333;-81
2022/10/21 03:02:06;;;;;;;12.07;9.10;;;12.50;99.90;;;;;;10065991;29;20666;-81
2022/10/21 03:07:09;;;;;;;14.50;9.87;;;12.70;99.90;;;;;;10074781;29;20287;-81
2022/10/21 03:12:11;;;;;;;11.40;9.17;;;13.20;99.90;;;;;;10073502;29;20292;-82
2022/10/21 03:17:14;;;;;;;17.20;11.23;;;13.00;99.90;;;;;;10052458;29;20312;-81
2022/10/21 03:22:16;;;;;;;12.33;8.83;;;11.70;99.90;;;;;;10071379;29;20312;-81
2022/10/21 03:27:19;;;;;;;15.40;10.53;;;11.90;99.90;;;;;;10072224;29;20276;-81
2022/10/21 03:32:21;;;;;;;17.87;11.87;;;12.60;99.90;;;;;;10070073;29;21064;-82
2022/10/21 03:37:24;;;;;;;14.10;10.33;;;12.10;99.90;;;;;;10071835;29;20324;-81
2022/10/21 03:42:27;;;;;;;17.33;12.20;;;12.50;99.90;;;;;;10073826;29;20312;-81
2022/10/21 03:47:32;;;;;;;11.87;9.00;;;12.20;99.90;;;;;;10053559;29;20300;-82
2022/10/21 03:52:34;;;;;;;14.23;10.27;;;12.70;99.90;;;;;;10071295;29;20689;-80
2022/10/21 03:57:37;;;;;;;10.07;8.27;;;12.60;99.90;;;;;;10070293;29;20284;-81
2022/10/21 04:02:40;;;;;;;15.60;12.37;;;11.60;99.90;;;;;;10053929;29;20225;-81
2022/10/21 04:07:42;;;;;;;11.47;8.60;;;12.20;99.90;;;;;;10052631;29;20296;-81
2022/10/21 04:12:49;;;;;;;10.97;8.20;;;12.10;99.90;;;;;;10070423;29;20341;-81
2022/10/21 04:17:51;;;;;;;18.83;12.07;;;13.40;99.90;;;;;;10070824;29;20299;-81
2022/10/21 04:22:54;;;;;;;13.07;9.90;;;13.30;99.90;;;;;;10070579;29;20772;-82
2022/10/21 04:27:56;;;;;;;17.70;10.83;;;13.10;99.90;;;;;;10070137;29;20751;-81
2022/10/21 04:32:59;;;;;;;13.73;9.80;;;13.20;99.90;;;;;;10066588;29;20316;-81
2022/10/21 04:38:01;;;;;;;10.10;7.93;;;13.70;99.90;;;;;;10036965;29;20719;-81
2022/10/21 04:43:04;;;;;;;9.67;7.83;;;13.90;99.90;;;;;;10068856;29;21736;-81
2022/10/21 04:48:07;;;;;;;9.03;7.17;;;14.20;99.90;;;;;;10052375;29;20292;-81
2022/10/21 04:53:09;;;;;;;8.40;7.17;;;14.00;99.90;;;;;;10066136;29;20681;-81
2022/10/21 04:58:12;;;;;;;11.03;8.67;;;14.30;99.90;;;;;;10071419;29;20269;-81
2022/10/21 05:03:17;;;;;;;12.37;9.50;;;14.20;99.90;;;;;;10071424;29;20320;-81
2022/10/21 05:08:20;;;;;;;19.83;14.00;;;13.90;99.90;;;;;;10053076;29;20277;-84
2022/10/21 05:13:22;;;;;;;14.10;10.03;;;12.90;99.90;;;;;;10071697;29;20248;-81
2022/10/21 05:18:25;;;;;;;14.73;11.23;;;12.10;99.90;;;;;;10074242;29;20308;-81
2022/10/21 05:23:28;;;;;;;15.80;10.60;;;13.00;99.90;;;;;;10073288;29;20252;-81
2022/10/21 05:28:30;;;;;;;12.10;8.70;;;13.80;99.90;;;;;;10088111;29;20285;-82
2022/10/21 05:33:32;;;;;;;19.03;12.07;;;14.50;99.90;;;;;;10090129;29;20273;-82
2022/10/21 05:38:35;;;;;;;19.87;12.90;;;14.50;99.90;;;;;;10089519;29;20803;-81
2022/10/21 05:43:38;;;;;;;15.27;9.33;;;14.10;99.90;;;;;;10090582;29;20267;-81
2022/10/21 05:48:40;;;;;;;12.83;9.47;;;13.70;99.90;;;;;;10097782;29;20325;-81
2022/10/21 05:53:43;;;;;;;14.83;9.90;;;14.00;99.90;;;;;;10097919;29;20244;-81
2022/10/21 05:58:45;;;;;;;16.23;10.53;;;13.60;99.90;;;;;;10077449;29;20244;-80
2022/10/21 06:03:47;;;;;;;16.93;10.53;;;14.90;99.90;;;;;;10041928;29;20265;-81
2022/10/21 06:08:50;;;;;;;20.30;11.80;;;15.00;99.90;;;;;;10079998;29;20292;-81
2022/10/21 06:13:53;;;;;;;17.97;11.43;;;15.30;99.90;;;;;;10096485;29;20244;-81
2022/10/21 06:18:55;;;;;;;13.57;9.93;;;14.90;99.90;;;;;;10094240;29;20281;-80
2022/10/21 06:23:58;;;;;;;14.60;10.10;;;15.00;99.90;;;;;;10095704;29;20285;-80
2022/10/21 06:29:01;;;;;;;12.93;9.00;;;15.30;99.90;;;;;;10079673;29;20260;-80
2022/10/21 06:34:03;;;;;;;12.83;10.57;;;15.10;99.90;;;;;;10095679;29;20918;-80
2022/10/21 06:39:06;;;;;;;14.63;9.37;;;15.10;99.90;;;;;;10093459;29;20720;-81
2022/10/21 06:44:09;;;;;;;15.77;11.10;;;14.90;99.90;;;;;;10095726;29;20262;-81
2022/10/21 06:49:11;;;;;;;14.23;9.93;;;14.50;99.90;;;;;;10078161;29;20237;-81
2022/10/21 06:54:14;;;;;;;22.27;12.53;;;14.60;99.90;;;;;;10095095;29;20244;-81
2022/10/21 06:59:16;;;;;;;13.27;8.97;;;14.30;99.90;;;;;;10080902;29;20249;-81
2022/10/21 07:04:19;;;;;;;15.40;9.13;;;15.20;99.90;;;;;;10090614;29;20264;-83
2022/10/21 07:09:21;;;;;;;17.70;12.33;;;15.30;99.90;;;;;;10072345;29;20647;-82
2022/10/21 07:14:24;;;;;;;21.10;14.40;;;15.40;99.90;;;;;;10068200;29;20237;-81
2022/10/21 07:19:27;;;;;;;18.40;12.53;;;15.10;99.90;;;;;;10086514;29;20698;-82
2022/10/21 07:24:29;;;;;;;18.47;13.73;;;13.30;99.90;;;;;;10070553;29;20264;-82
2022/10/21 07:29:32;;;;;;;18.23;12.30;;;12.70;99.90;;;;;;10088625;29;20268;-82
2022/10/21 07:34:34;;;;;;;17.73;12.07;;;12.30;99.90;;;;;;10094382;29;20237;-82
2022/10/21 07:39:37;;;;;;;20.07;12.23;;;12.50;99.90;;;;;;10089328;29;20248;-82
2022/10/21 07:44:40;;;;;;;11.93;9.40;;;12.80;99.90;;;;;;10072137;29;20795;-83
2022/10/21 07:49:42;;;;;;;17.13;10.43;;;12.60;99.90;;;;;;10072611;29;20657;-83
2022/10/21 07:54:45;;;;;;;13.97;10.03;;;14.10;99.90;;;;;;10071809;29;20237;-82
2022/10/21 07:59:47;;;;;;;16.10;11.10;;;14.40;99.90;;;;;;10089777;29;20696;-82
2022/10/21 08:04:52;;;;;;;17.40;10.83;;;15.30;99.90;;;;;;10071871;29;20256;-82
2022/10/21 08:09:56;;;;;;;12.97;8.93;;;15.40;99.90;;;;;;10088010;29;20300;-81
2022/10/21 08:14:59;;;;;;;20.73;13.43;;;15.40;99.90;;;;;;10087949;29;20627;-80
2022/10/21 08:20:01;;;;;;;17.13;10.63;;;15.20;99.90;;;;;;10087190;29;20704;-82
2022/10/21 08:25:04;;;;;;;15.27;10.93;;;15.30;99.90;;;;;;10067666;29;20262;-83
2022/10/21 08:30:07;;;;;;;19.00;13.93;;;15.60;99.90;;;;;;10087138;29;20272;-83
2022/10/21 08:35:09;;;;;;;16.67;10.83;;;15.50;99.90;;;;;;10071182;29;20237;-83
2022/10/21 08:40:12;;;;;;;13.97;9.87;;;14.90;99.90;;;;;;10087933;29;20880;-83
2022/10/21 08:45:32;;;;;;;16.80;10.63;;;15.00;99.90;;;;;;10085141;29;20308;-83
2022/10/21 08:50:40;;;;;;;13.20;10.00;;;15.50;99.90;;;;;;10065552;29;20738;-83
2022/10/21 08:55:44;;;;;;;16.67;9.93;;;15.30;99.90;;;;;;10087201;29;20232;-83
2022/10/21 09:00:47;;;;;;;16.00;11.67;;;15.40;99.90;;;;;;10071019;29;20248;-83
2022/10/21 09:06:20;;;;;;;13.20;9.93;;;15.00;99.90;;;;;;10069188;29;20252;-83
2022/10/21 09:11:44;;;;;;;16.73;11.30;;;15.00;99.90;;;;;;10084310;29;20245;-83
2022/10/21 09:16:55;;;;;;;14.83;9.73;;;15.20;99.90;;;;;;10081305;29;20240;-82
2022/10/21 09:22:45;;;;;;;22.33;12.40;;;15.50;99.90;;;;;;10084774;29;20308;-82
2022/10/21 09:27:49;;;;;;;14.00;10.13;;;14.90;99.90;;;;;;10047991;29;20244;-82
2022/10/21 09:32:59;;;;;;;19.63;14.40;;;14.50;99.90;;;;;;10085202;29;20748;-83
2022/10/21 09:38:29;;;;;;;14.67;10.03;;;15.10;99.90;;;;;;10067445;29;20303;-82
2022/10/21 09:43:32;;;;;;;20.00;13.57;;;15.20;99.90;;;;;;9950278;29;20815;-83
2022/10/21 09:48:43;;;;;;;15.87;10.97;;;15.50;99.90;;;;;;9963866;29;20329;-82
2022/10/21 09:54:12;;;;;;;22.53;16.63;;;15.50;99.90;;;;;;9951107;29;20286;-82
2022/10/21 09:59:20;;;;;;;24.03;15.10;;;15.50;99.90;;;;;;9968042;29;20249;-82
2022/10/21 10:04:25;;;;;;;25.37;14.80;;;15.70;99.90;;;;;;9948283;29;20323;-81
2022/10/21 10:09:32;;;;;;;9.93;7.97;;;16.00;99.90;;;;;;9951901;29;20302;-82
2022/10/21 10:14:38;;;;;;;17.57;13.17;;;16.40;99.90;;;;;;9951222;29;20288;-82
2022/10/21 10:19:40;;;;;;;14.67;9.93;;;16.20;99.90;;;;;;10028818;29;20660;-82
2022/10/21 10:24:43;;;;;;;22.30;13.50;;;16.20;99.90;;;;;;10086118;29;20320;-82
2022/10/21 10:29:55;;;;;;;13.93;10.43;;;16.40;99.90;;;;;;10090110;29;20659;-82
2022/10/21 10:35:04;;;;;;;14.03;10.20;;;16.70;99.90;;;;;;10090179;29;20299;-82
2022/10/21 10:40:09;;;;;;;15.10;9.03;;;16.40;99.90;;;;;;10075793;29;21695;-81
2022/10/21 10:45:15;;;;;;;11.87;9.07;;;16.60;99.90;;;;;;10075159;29;20321;-83
2022/10/21 10:50:36;;;;;;;19.93;12.97;;;16.60;99.90;;;;;;10092254;29;20241;-82
2022/10/21 10:55:43;;;;;;;14.87;10.97;;;16.30;99.90;;;;;;10091860;29;20236;-83
2022/10/21 11:00:50;;;;;;;17.87;12.93;;;16.10;99.90;;;;;;10092810;29;20300;-83
2022/10/21 11:06:00;;;;;;;8.97;6.83;;;16.30;99.90;;;;;;10090246;29;20266;-83
2022/10/21 11:11:06;;;;;;;14.97;9.80;;;16.60;99.90;;;;;;10090934;29;20236;-83
2022/10/21 11:16:35;;;;;;;11.17;8.13;;;16.50;99.90;;;;;;10070659;29;20245;-83
2022/10/21 11:22:33;;;;;;;8.60;7.00;;;16.50;99.90;;;;;;10063746;29;20302;-82
2022/10/21 11:27:54;;;;;;;10.30;7.33;;;16.70;99.90;;;;;;10085203;29;20305;-83
2022/10/21 11:33:09;;;;;;;11.13;7.93;;;16.80;99.90;;;;;;10090860;29;20275;-83
2022/10/21 11:38:36;;;;;;;14.37;8.97;;;17.00;99.90;;;;;;10072733;29;20236;-83
2022/10/21 11:43:45;;;;;;;11.50;9.27;;;16.80;99.90;;;;;;10090818;29;20267;-83
2022/10/21 11:48:50;;;;;;;14.77;9.87;;;16.30;99.90;;;;;;10090842;29;20248;-83
2022/10/21 11:54:25;;;;;;;16.97;12.60;;;16.50;99.90;;;;;;10090011;29;20241;-82
2022/10/21 11:59:57;;;;;;;10.43;8.60;;;16.50;99.90;;;;;;10073333;29;20292;-83
2022/10/21 12:05:14;;;;;;;15.50;11.50;;;16.40;99.90;;;;;;10071902;29;20257;-81
2022/10/21 12:10:38;;;;;;;10.63;8.30;;;16.70;99.90;;;;;;10071336;29;20622;-82
2022/10/21 12:15:46;;;;;;;41.70;18.00;;;16.40;99.90;;;;;;10088363;29;20736;-81
2022/10/21 12:20:54;;;;;;;18.13;12.83;;;16.60;99.90;;;;;;10071680;29;20699;-84
2022/10/21 12:26:29;;;;;;;20.60;13.80;;;15.80;99.90;;;;;;10086292;29;20673;-83
2022/10/21 12:31:57;;;;;;;23.57;14.93;;;14.10;99.90;;;;;;10059230;29;20265;-82
2022/10/21 12:37:00;;;;;;;23.13;14.83;;;13.90;99.90;;;;;;10085057;29;20694;-82
2022/10/21 12:42:17;;;;;;;23.33;15.00;;;13.80;99.90;;;;;;10081684;29;20233;-82
2022/10/21 12:47:24;;;;;;;22.03;15.17;;;12.60;99.90;;;;;;10067575;29;20236;-88
2022/10/21 12:52:27;;;;;;;28.13;15.67;;;13.20;99.90;;;;;;10070128;29;20248;-83
2022/10/21 12:57:34;;;;;;;24.30;15.80;;;12.50;99.90;;;;;;10070622;29;20239;-82
2022/10/21 13:02:55;;;;;;;24.07;16.03;;;12.60;99.90;;;;;;10070018;29;20725;-82
2022/10/21 13:08:21;;;;;;;29.30;16.93;;;12.60;99.90;;;;;;10083836;29;20226;-81
2022/10/21 13:13:39;;;;;;;22.20;15.50;;;12.70;99.90;;;;;;10087782;29;20227;-83
2022/10/21 13:18:57;;;;;;;23.33;15.20;;;;;;;;;;10085251;29;20233;-83
2022/10/21 13:24:12;;;;;;;25.13;15.00;;;12.50;99.90;;;;;;10067711;29;20411;-83
2022/10/21 13:29:44;;;;;;;33.97;20.33;;;12.50;99.90;;;;;;10065745;29;20739;-84
2022/10/21 13:34:50;;;;;;;30.17;19.37;;;12.60;99.90;;;;;;10065668;29;20274;-83
2022/10/21 13:39:56;;;;;;;35.07;20.07;;;12.80;99.90;;;;;;10080633;29;20235;-83
2022/10/21 13:45:06;;;;;;;25.97;15.87;;;12.90;99.90;;;;;;10066966;29;20714;-81
2022/10/21 13:50:08;;;;;;;22.93;15.87;;;13.00;99.90;;;;;;10083353;29;20238;-82
2022/10/21 13:55:20;;;;;;;26.00;15.97;;;13.20;99.90;;;;;;10070781;29;20458;-82
2022/10/21 14:00:29;;;;;;;27.60;17.80;;;13.20;99.90;;;;;;10084459;29;20239;-83
2022/10/21 14:05:39;;;;;;;25.30;16.57;;;13.00;99.90;;;;;;10085377;29;20308;-82
2022/10/21 14:10:46;;;;;;;13.80;9.73;;;12.70;99.90;;;;;;10077830;29;20224;-83
2022/10/21 14:15:50;;;;;;;9.83;6.90;;;15.30;99.90;;;;;;10096095;29;20698;-83
2022/10/21 14:20:53;;;;;;;11.80;8.57;;;16.00;99.90;;;;;;10094900;29;20292;-82
2022/10/21 14:26:03;;;;;;;7.80;6.10;;;16.50;99.90;;;;;;10079320;29;20725;-83
2022/10/21 14:31:10;;;;;;;26.17;15.23;;;16.70;99.90;;;;;;10078372;29;20706;-82
2022/10/21 14:36:19;;;;;;;27.77;16.80;;;12.90;99.90;;;;;;10044598;29;20232;-82
2022/10/21 14:41:33;;;;;;;17.80;13.00;;;12.10;99.90;;;;;;10095195;29;20753;-81
2022/10/21 14:46:47;;;;;;;21.53;13.67;;;11.80;99.90;;;;;;10079066;29;20256;-81
2022/10/21 14:51:56;;;;;;;21.57;13.70;;;11.80;99.90;;;;;;10094711;29;20238;-81
2022/10/21 14:57:00;;;;;;;19.57;12.27;;;11.60;99.90;;;;;;10094198;29;20240;-81
2022/10/21 15:02:03;;;;;;;19.93;13.47;;;11.40;99.90;;;;;;10094371;29;20280;-81
2022/10/21 15:07:15;;;;;;;21.93;13.17;;;11.40;99.90;;;;;;10049382;29;20289;-80
2022/10/21 15:12:18;;;;;;;23.10;13.77;;;11.30;99.90;;;;;;10093864;29;20233;-81
2022/10/21 15:17:22;;;;;;;22.87;13.90;;;11.30;99.90;;;;;;10093759;29;20241;-81
2022/10/21 15:22:24;;;;;;;29.30;16.87;;;11.10;99.90;;;;;;10093777;29;20232;-82
2022/10/21 15:27:32;;;;;;;51.80;25.83;;;10.90;99.90;;;;;;10093872;29;20256;-81
2022/10/21 15:32:38;;;;;;;31.67;18.53;;;10.80;99.90;;;;;;10091885;29;20804;-82
2022/10/21 15:37:41;;;;;;;38.83;18.97;;;10.60;99.90;;;;;;10092493;29;20624;-83
2022/10/21 15:42:44;;;;;;;32.57;19.20;;;10.60;99.90;;;;;;10076451;29;20233;-81
2022/10/21 15:47:51;;;;;;;14.33;9.03;;;10.60;99.90;;;;;;10091573;29;20249;-82
2022/10/21 15:52:54;;;;;;;17.73;10.93;;;11.70;99.90;;;;;;10089737;29;20297;-82
2022/10/21 15:57:57;;;;;;;17.67;9.53;;;13.30;99.90;;;;;;10091390;29;20293;-82
2022/10/21 16:03:00;;;;;;;20.53;11.77;;;13.70;99.90;;;;;;10091231;29;20935;-82
2022/10/21 16:08:02;;;;;;;22.90;14.77;;;13.90;99.90;;;;;;10090692;29;20645;-82
2022/10/21 16:13:05;;;;;;;23.17;14.13;;;13.90;99.90;;;;;;10092489;29;20753;-82
2022/10/21 16:18:12;;;;;;;24.50;14.53;;;13.80;99.90;;;;;;10072998;29;20229;-83
2022/10/21 16:23:15;;;;;;;15.20;10.20;;;14.00;99.90;;;;;;10080526;29;20260;-82
2022/10/21 16:28:17;;;;;;;29.07;15.70;;;14.40;99.90;;;;;;10075702;29;20257;-82
2022/10/21 16:33:20;;;;;;;15.60;10.80;;;14.70;99.90;;;;;;10033619;29;20253;-83
2022/10/21 16:38:22;;;;;;;47.17;27.40;;;14.70;99.90;;;;;;10075684;29;20236;-83
2022/10/21 16:43:25;;;;;;;34.67;20.60;;;12.30;99.90;;;;;;10074227;29;20264;-83
2022/10/21 16:48:27;;;;;;;26.10;14.80;;;11.90;99.90;;;;;;10089779;29;20304;-82
2022/10/21 16:53:30;;;;;;;24.63;16.37;;;13.20;99.90;;;;;;10090607;29;20810;-83
2022/10/21 16:58:32;;;;;;;27.83;15.67;;;13.40;99.90;;;;;;10046603;29;20240;-83
2022/10/21 17:03:35;;;;;;;33.67;15.67;;;13.70;99.90;;;;;;10071991;29;20244;-82
2022/10/21 17:08:37;;;;;;;37.13;20.53;;;13.80;99.90;;;;;;10088914;29;20229;-84
2022/10/21 17:13:44;;;;;;;29.10;18.47;;;13.40;99.90;;;;;;10065162;29;20220;-82
2022/10/21 17:18:47;;;;;;;20.53;11.50;;;12.70;99.90;;;;;;10072076;29;20315;-83
2022/10/21 17:23:50;;;;;;;23.83;14.40;;;13.40;99.90;;;;;;10090518;29;20248;-82
2022/10/21 17:28:53;;;;;;;25.37;15.00;;;14.30;99.90;;;;;;10073037;29;20293;-82
2022/10/21 17:33:58;;;;;;;20.97;12.97;;;14.80;99.90;;;;;;10088945;29;20734;-81
2022/10/21 17:39:01;;;;;;;20.50;14.00;;;15.10;99.90;;;;;;10072027;29;20248;-80
2022/10/21 17:44:04;;;;;;;26.47;16.03;;;15.20;99.90;;;;;;10078168;29;20264;-80
2022/10/21 17:49:09;;;;;;;19.87;10.97;;;15.20;99.90;;;;;;10087062;29;20265;-80
2022/10/21 17:54:12;;;;;;;24.77;15.77;;;15.30;99.90;;;;;;9745809;29;9999880;-79
2022/10/21 17:59:14;;;;;;;39.33;22.90;;;15.50;99.90;;;;;;10092711;29;20290;-80
2022/10/21 18:04:16;;;;;;;42.43;25.83;;;14.20;99.90;;;;;;10072990;29;20328;-81
2022/10/21 18:09:19;;;;;;;28.53;20.87;;;13.70;99.90;;;;;;10091688;29;20229;-80
2022/10/21 18:14:22;;;;;;;37.10;21.37;;;14.10;99.90;;;;;;10091890;29;20236;-80
2022/10/21 18:19:25;;;;;;;33.70;22.27;;;13.50;99.90;;;;;;10090432;29;20288;-81
2022/10/21 18:24:28;;;;;;;35.90;21.93;;;13.10;99.90;;;;;;10076553;29;20278;-80
2022/10/21 18:29:31;;;;;;;37.50;21.37;;;12.70;99.90;;;;;;10093020;29;20308;-79
2022/10/21 18:34:34;;;;;;;32.00;22.50;;;12.60;99.90;;;;;;10059250;29;20229;-80
2022/10/21 18:39:37;;;;;;;34.93;18.57;;;12.50;99.90;;;;;;10072034;29;20300;-80
2022/10/21 18:44:39;;;;;;;38.27;21.63;;;12.50;99.90;;;;;;10091185;29;20342;-81
2022/10/21 18:49:42;;;;;;;38.63;24.47;;;12.50;99.90;;;;;;10073805;29;20244;-80
2022/10/21 18:54:45;;;;;;;38.23;24.30;;;12.40;99.90;;;;;;10086489;29;20229;-80
2022/10/21 18:59:48;;;;;;;40.17;24.70;;;12.40;99.90;;;;;;10091909;29;20236;-80
2022/10/21 19:04:51;;;;;;;37.77;25.73;;;12.60;99.90;;;;;;10090651;29;20260;-79
2022/10/21 19:09:55;;;;;;;39.13;25.73;;;12.50;99.90;;;;;;10072424;29;20225;-80
2022/10/21 19:14:58;;;;;;;44.93;26.67;;;12.60;99.90;;;;;;10073198;29;20237;-80
2022/10/21 19:20:02;;;;;;;36.63;23.60;;;12.60;99.90;;;;;;10086184;29;20604;-80
2022/10/21 19:25:06;;;;;;;40.17;23.70;;;12.50;99.90;;;;;;10088657;29;20248;-80
2022/10/21 19:30:09;;;;;;;43.37;23.77;;;12.50;99.90;;;;;;10072772;29;20312;-81
2022/10/21 19:35:12;;;;;;;33.17;22.77;;;12.50;99.90;;;;;;10098869;29;20715;-81
2022/10/21 19:40:15;;;;;;;38.43;23.47;;;12.60;99.90;;;;;;10072067;29;20237;-81
2022/10/21 19:45:18;;;;;;;36.70;23.47;;;12.70;99.90;;;;;;10087446;29;20334;-83
2022/10/21 19:50:21;;;;;;;32.57;20.40;;;12.50;99.90;;;;;;10072230;29;20269;-81
2022/10/21 19:55:24;;;;;;;32.13;21.83;;;12.30;99.90;;;;;;10084894;29;20236;-81
2022/10/21 20:00:27;;;;;;;28.27;17.40;;;12.40;99.90;;;;;;10092051;29;20237;-82
2022/10/21 20:05:33;;;;;;;29.00;19.30;;;12.50;99.90;;;;;;10066732;29;20325;-82
2022/10/21 20:10:35;;;;;;;27.87;17.27;;;12.50;99.90;;;;;;10085029;29;20640;-82
2022/10/21 20:15:46;;;;;;;21.57;15.47;;;12.60;99.90;;;;;;10082469;29;20237;-83
2022/10/21 20:20:48;;;;;;;22.87;16.63;;;12.70;99.90;;;;;;10073922;29;20213;-85
2022/10/21 20:25:56;;;;;;;22.33;15.33;;;12.80;99.90;;;;;;10085380;29;20256;-83
2022/10/21 20:31:07;;;;;;;26.00;17.33;;;12.70;99.90;;;;;;10079476;29;20728;-81
2022/10/21 20:36:14;;;;;;;24.80;17.20;;;12.60;99.90;;;;;;10073748;29;20229;-82
2022/10/21 20:41:21;;;;;;;20.97;13.83;;;12.70;99.90;;;;;;10081904;29;20304;-83
2022/10/21 20:46:24;;;;;;;26.27;15.93;;;12.70;99.90;;;;;;10088145;29;20260;-83
2022/10/21 20:51:28;;;;;;;22.53;16.40;;;12.50;99.90;;;;;;10086704;29;20240;-82
2022/10/21 20:56:33;;;;;;;21.73;15.13;;;12.70;99.90;;;;;;10054146;29;20256;-83
2022/10/21 21:01:39;;;;;;;22.03;15.47;;;12.80;99.90;;;;;;10088271;29;20229;-82
2022/10/21 21:06:45;;;;;;;20.20;14.83;;;12.90;99.90;;;;;;10072601;29;20249;-82
2022/10/21 21:11:48;;;;;;;25.00;15.93;;;12.90;99.90;;;;;;10071555;29;20751;-82
2022/10/21 21:16:50;;;;;;;22.30;15.77;;;13.10;99.90;;;;;;10085486;29;20245;-81
2022/10/21 21:21:53;;;;;;;26.97;15.53;;;12.90;99.90;;;;;;10086107;29;20687;-81
2022/10/21 21:26:55;;;;;;;21.97;15.70;;;12.80;99.90;;;;;;10089159;29;20690;-81
2022/10/21 21:31:58;;;;;;;24.27;15.77;;;12.90;99.90;;;;;;10073754;29;20801;-82
2022/10/21 21:37:00;;;;;;;28.57;17.63;;;13.40;99.90;;;;;;10088038;29;20237;-82
2022/10/21 21:42:03;;;;;;;24.87;17.37;;;13.40;99.90;;;;;;10073475;29;20747;-83
2022/10/21 21:47:06;;;;;;;14.03;10.17;;;13.30;99.90;;;;;;10071281;29;20256;-83
2022/10/21 21:52:08;;;;;;;19.30;16.03;;;13.30;99.90;;;;;;10071093;29;20340;-83
2022/10/21 21:57:10;;;;;;;21.73;14.33;;;13.20;99.90;;;;;;10070849;29;20232;-82
2022/10/21 22:02:30;;;;;;;18.23;13.10;;;13.10;99.90;;;;;;10057717;29;20245;-82
2022/10/21 22:07:32;;;;;;;19.77;12.43;;;13.30;99.90;;;;;;10084241;29;20656;-81
2022/10/21 22:12:34;;;;;;;16.43;10.57;;;13.00;99.90;;;;;;10072039;29;20300;-82
2022/10/21 22:17:37;;;;;;;14.50;10.90;;;13.00;99.90;;;;;;10086626;29;20245;-82
2022/10/21 22:22:40;;;;;;;14.23;10.40;;;13.00;99.90;;;;;;10084201;29;20368;-82
2022/10/21 22:27:43;;;;;;;15.50;10.10;;;13.10;99.90;;;;;;10088466;29;20320;-81
2022/10/21 22:32:46;;;;;;;11.20;8.13;;;13.30;99.90;;;;;;10079056;29;20717;-81
2022/10/21 22:37:48;;;;;;;12.60;9.27;;;14.50;99.90;;;;;;10091606;29;20273;-81
2022/10/21 22:42:51;;;;;;;12.13;10.23;;;15.30;99.90;;;;;;10080135;29;20237;-81
2022/10/21 22:47:53;;;;;;;14.10;9.77;;;15.50;99.90;;;;;;10084685;29;20333;-82
2022/10/21 22:52:56;;;;;;;12.47;9.20;;;15.60;99.90;;;;;;10094816;29;20284;-82
2022/10/21 22:57:58;;;;;;;15.90;11.83;;;15.60;99.90;;;;;;10095584;29;20245;-82
2022/10/21 23:03:01;;;;;;;14.67;11.70;;;15.20;99.90;;;;;;10096093;29;20754;-81
2022/10/21 23:08:10;;;;;;;23.40;14.67;;;14.30;99.90;;;;;;10085268;29;20260;-82
2022/10/21 23:13:12;;;;;;;20.23;14.77;;;13.60;99.90;;;;;;10095726;29;20758;-82
2022/10/21 23:18:16;;;;;;;18.73;13.80;;;13.80;99.90;;;;;;10095024;29;20289;-81
2022/10/21 23:23:18;;;;;;;16.87;12.03;;;13.60;99.90;;;;;;10077714;29;20248;-82
2022/10/21 23:28:21;;;;;;;22.13;15.30;;;13.50;99.90;;;;;;10094931;29;20699;-82
2022/10/21 23:33:24;;;;;;;25.07;16.70;;;13.50;99.90;;;;;;10078631;29;20292;-81
2022/10/21 23:38:26;;;;;;;19.27;15.77;;;13.30;99.90;;;;;;10093985;29;20301;-82
2022/10/21 23:43:29;;;;;;;26.00;17.83;;;13.30;99.90;;;;;;10091940;29;20276;-82
2022/10/21 23:48:31;;;;;;;24.53;18.20;;;13.00;99.90;;;;;;10058574;29;20260;-82
2022/10/21 23:53:34;;;;;;;28.13;18.13;;;13.10;99.90;;;;;;10061967;29;20747;-82
2022/10/21 23:58:37;;;;;;;19.47;14.97;;;13.20;99.90;;;;;;10076541;29;20230;-82
